»·PEaware :: SWA867 KMDW-KLAS

SWA867 :: KMDW-KLAS

FLIGHT INFORMATION

Flight Status: Arrived
Operator:
Southwest Airlines
More flights by this operator :: More flights under this callsign
Pilot: Daniel W. (24238)
Aircraft: BOEING 737-700
(B737)
More flights by this aircraft type
Origin: KMDW Chicago-Midway
United States
Destination: KLAS McCarran Intl
United States
More flights between these airports :: More routes between these airports
Route: PEKUE OBENE OGALE LNK J146 GLD FLOOD HBU J146 DVC SINNN SITEE4
File this flight plan on PilotEdge
Remarks: PBN / A1D1O1S2T1 NAV / RNVD1E1A1 RNP10 DOF / 210111 REG / N437WN EET / KZMP0041 KZDV0117 KZLA0243 CODE / A53F20 PER / C
Altitude:
(Current/Filed)
38,000ft
Speed:
(Current/Filed)
434kts
Departed: 11-Jan-21 10:37 AM
Arrived: 11-Jan-21 01:40 PM
Distance/Time
Traveled:
1318nm/3:03
Distance/Time
To Go:
Arrived

Flight Plot

Page will automatically refresh every two minutes.

Flight plan parsing failed; only flown route is shown


Map Options




Map Legend


Flown Route
Filed Route
Departure Airport
Arrival Airport
Navaid (VOR, NDB)
Fix

Horizontal Profiles

Position Reports

Time Latitude Longitude Heading Altitude Ground
Speed
11-Jan-21 09:46 41.783510 -87.742568 133 628ft 0kts
11-Jan-21 09:46 41.783510 -87.742568 133 628ft 0kts
11-Jan-21 09:47 41.783510 -87.742568 133 628ft 0kts
11-Jan-21 09:48 41.783510 -87.742568 133 628ft 0kts
11-Jan-21 09:49 41.783510 -87.742568 133 628ft 0kts
11-Jan-21 09:50 41.783510 -87.742568 133 628ft 0kts
11-Jan-21 09:51 41.783510 -87.742568 133 628ft 0kts
11-Jan-21 09:52 41.783510 -87.742568 133 628ft 0kts
11-Jan-21 09:53 41.783510 -87.742568 133 628ft 0kts
11-Jan-21 09:54 41.783510 -87.742568 133 628ft 0kts
11-Jan-21 09:55 41.783510 -87.742568 133 628ft 0kts
11-Jan-21 09:56 41.783510 -87.742568 133 628ft 0kts
11-Jan-21 09:57 41.783510 -87.742568 133 628ft 0kts
11-Jan-21 09:58 41.783510 -87.742568 133 628ft 0kts
11-Jan-21 09:59 41.783510 -87.742568 133 628ft 0kts
11-Jan-21 10:00 41.783510 -87.742568 133 628ft 0kts
11-Jan-21 10:01 41.783510 -87.742568 133 628ft 0kts
11-Jan-21 10:02 41.783510 -87.742568 133 628ft 0kts
11-Jan-21 10:03 41.783510 -87.742568 133 628ft 0kts
11-Jan-21 10:04 41.783510 -87.742568 133 628ft 0kts
11-Jan-21 10:05 41.783510 -87.742568 133 628ft 0kts
11-Jan-21 10:06 41.783510 -87.742568 133 628ft 0kts
11-Jan-21 10:07 41.783510 -87.742568 133 628ft 0kts
11-Jan-21 10:08 41.783510 -87.742568 133 628ft 0kts
11-Jan-21 10:09 41.783510 -87.742568 133 628ft 0kts
11-Jan-21 10:10 41.783510 -87.742568 133 628ft 0kts
11-Jan-21 10:11 41.783510 -87.742568 133 628ft 0kts
11-Jan-21 10:12 41.783510 -87.742568 133 628ft 0kts
11-Jan-21 10:13 41.783510 -87.742568 133 628ft 0kts
11-Jan-21 10:14 41.783510 -87.742568 133 628ft 0kts
11-Jan-21 10:15 41.783510 -87.742568 133 628ft 0kts
11-Jan-21 10:16 41.783510 -87.742568 133 628ft 0kts
11-Jan-21 10:17 41.783510 -87.742568 133 628ft 0kts
11-Jan-21 10:18 41.783510 -87.742568 133 628ft 0kts
11-Jan-21 10:19 41.783510 -87.742568 133 628ft 0kts
11-Jan-21 10:20 41.783510 -87.742568 133 628ft 0kts
11-Jan-21 10:21 41.783510 -87.742568 133 628ft 0kts
11-Jan-21 10:22 41.783510 -87.742568 133 628ft 0kts
11-Jan-21 10:23 41.783510 -87.742568 133 628ft 0kts
11-Jan-21 10:24 41.783510 -87.742568 133 628ft 0kts
11-Jan-21 10:25 41.783510 -87.742568 133 628ft 0kts
11-Jan-21 10:26 41.783510 -87.742568 133 628ft 0kts
11-Jan-21 10:27 41.783510 -87.742568 133 628ft 0kts
11-Jan-21 10:28 41.784021 -87.742990 172 628ft 2kts
11-Jan-21 10:29 41.784341 -87.742901 224 628ft 0kts
11-Jan-21 10:30 41.784341 -87.742901 224 628ft 0kts
11-Jan-21 10:31 41.784340 -87.742902 224 628ft 0kts
11-Jan-21 10:32 41.784339 -87.742904 224 628ft 0kts
11-Jan-21 10:33 41.784227 -87.745240 313 628ft 15kts
11-Jan-21 10:34 41.787692 -87.747122 44 628ft 20kts
11-Jan-21 10:35 41.791636 -87.742812 317 628ft 13kts
11-Jan-21 10:36 41.780357 -87.757783 224 899ft 137kts
11-Jan-21 10:37 41.769948 -87.814948 266 2692ft 203kts
11-Jan-21 10:38 41.771844 -87.900444 270 5520ft 242kts
11-Jan-21 10:39 41.773990 -87.994524 273 9368ft 259kts
11-Jan-21 10:40 41.777000 -88.096212 273 12354ft 305kts
11-Jan-21 10:41 41.780417 -88.217431 274 15491ft 337kts
11-Jan-21 10:42 41.783941 -88.346412 274 18773ft 355kts
11-Jan-21 10:43 41.788551 -88.482383 275 21527ft 377kts
11-Jan-21 10:44 41.792252 -88.627041 276 23904ft 397kts
11-Jan-21 10:45 41.795850 -88.777698 276 26081ft 411kts
11-Jan-21 10:46 41.803856 -88.931842 279 28150ft 418kts
11-Jan-21 10:47 41.813426 -89.089281 278 29793ft 429kts
11-Jan-21 10:48 41.822849 -89.250894 278 31161ft 440kts
11-Jan-21 10:49 41.833305 -89.413914 279 32857ft 437kts
11-Jan-21 10:50 41.842267 -89.575783 279 34360ft 435kts
11-Jan-21 10:51 41.847601 -89.737586 270 35711ft 438kts
11-Jan-21 10:52 41.831461 -89.900388 266 36948ft 438kts
11-Jan-21 10:53 41.814062 -90.061960 266 38014ft 437kts
11-Jan-21 10:54 41.796947 -90.223680 266 38289ft 437kts
11-Jan-21 10:55 41.780208 -90.384600 266 38290ft 437kts
11-Jan-21 10:56 41.762734 -90.546281 265 38291ft 438kts
11-Jan-21 10:57 41.744976 -90.707687 265 38294ft 439kts
11-Jan-21 10:58 41.726888 -90.869791 265 38290ft 439kts
11-Jan-21 10:59 41.708638 -91.031219 265 38286ft 440kts
11-Jan-21 11:00 41.690025 -91.193736 265 38282ft 440kts
11-Jan-21 11:01 41.671287 -91.355267 265 38288ft 441kts
11-Jan-21 11:02 41.652228 -91.517512 265 38289ft 441kts
11-Jan-21 11:03 41.633054 -91.678719 265 38265ft 440kts
11-Jan-21 11:04 41.613545 -91.840733 264 38261ft 440kts
11-Jan-21 11:05 41.593871 -92.002141 264 38232ft 440kts
11-Jan-21 11:06 41.574001 -92.163220 264 38233ft 441kts
11-Jan-21 11:07 41.553746 -92.325476 264 38236ft 442kts
11-Jan-21 11:09 41.533313 -92.487240 264 38234ft 442kts
11-Jan-21 11:10 41.512584 -92.649442 264 38232ft 444kts
11-Jan-21 11:11 41.491523 -92.812350 263 38229ft 445kts
11-Jan-21 11:12 41.470277 -92.974851 263 38233ft 445kts
11-Jan-21 11:13 41.449136 -93.137749 263 38224ft 446kts
11-Jan-21 11:14 41.427183 -93.300532 263 38216ft 446kts
11-Jan-21 11:15 41.404950 -93.463457 263 38214ft 446kts
11-Jan-21 11:16 41.383125 -93.626006 263 38215ft 446kts
11-Jan-21 11:17 41.360971 -93.788717 262 38212ft 446kts
11-Jan-21 11:18 41.338788 -93.950725 263 38213ft 446kts
11-Jan-21 11:19 41.317173 -94.113730 262 38213ft 446kts
11-Jan-21 11:20 41.294825 -94.276208 262 38209ft 447kts
11-Jan-21 11:21 41.272128 -94.438720 262 38213ft 447kts
11-Jan-21 11:22 41.249125 -94.601550 262 38212ft 448kts
11-Jan-21 11:23 41.225815 -94.764798 262 38203ft 448kts
11-Jan-21 11:24 41.202369 -94.927257 262 38198ft 449kts
11-Jan-21 11:24 41.182639 -95.062697 262 38203ft 449kts
11-Jan-21 11:26 41.154672 -95.252680 262 38213ft 449kts
11-Jan-21 11:26 41.134449 -95.388662 261 38215ft 449kts
11-Jan-21 11:27 41.110088 -95.550950 261 38207ft 449kts
11-Jan-21 11:29 41.081275 -95.740823 261 38203ft 450kts
11-Jan-21 11:29 41.060563 -95.875956 261 38212ft 450kts
11-Jan-21 11:30 41.035358 -96.038926 261 38217ft 451kts
11-Jan-21 11:31 41.009985 -96.201387 261 38217ft 451kts
11-Jan-21 11:32 40.984571 -96.364430 261 38215ft 452kts
11-Jan-21 11:33 40.958659 -96.527107 260 38215ft 453kts
11-Jan-21 11:34 40.932216 -96.690120 260 38225ft 453kts
11-Jan-21 11:35 40.893509 -96.849551 251 38229ft 456kts
11-Jan-21 11:36 40.848306 -97.006195 251 38224ft 457kts
11-Jan-21 11:37 40.802804 -97.163528 251 38222ft 458kts
11-Jan-21 11:38 40.758197 -97.321054 251 38212ft 459kts
11-Jan-21 11:39 40.712699 -97.478730 251 38204ft 460kts
11-Jan-21 11:40 40.666672 -97.636814 251 38199ft 462kts
11-Jan-21 11:41 40.620404 -97.794683 251 38202ft 463kts
11-Jan-21 11:42 40.573730 -97.952967 251 38204ft 465kts
11-Jan-21 11:43 40.526656 -98.111641 250 38215ft 465kts
11-Jan-21 11:44 40.479376 -98.270063 250 38219ft 465kts
11-Jan-21 11:45 40.431975 -98.427946 250 38222ft 465kts
11-Jan-21 11:46 40.384339 -98.585671 250 38223ft 465kts
11-Jan-21 11:47 40.336494 -98.743159 250 38224ft 464kts
11-Jan-21 11:48 40.288504 -98.900201 250 38229ft 463kts
11-Jan-21 11:49 40.240470 -99.056473 250 38223ft 463kts
11-Jan-21 11:50 40.191982 -99.213313 250 38223ft 464kts
11-Jan-21 11:51 40.143285 -99.369893 250 38229ft 466kts
11-Jan-21 11:52 40.094220 -99.526793 250 38238ft 467kts
11-Jan-21 11:53 40.044710 -99.684194 249 38251ft 469kts
11-Jan-21 11:54 39.994938 -99.841519 249 38264ft 470kts
11-Jan-21 11:55 39.944733 -99.999306 249 38268ft 470kts
11-Jan-21 11:56 39.894389 -100.156628 249 38270ft 470kts
11-Jan-21 11:57 39.843875 -100.313594 249 38279ft 470kts
11-Jan-21 11:58 39.792997 -100.470794 249 38288ft 470kts
11-Jan-21 11:59 39.742035 -100.627347 249 38289ft 471kts
11-Jan-21 12:00 39.690875 -100.783685 248 38289ft 471kts
11-Jan-21 12:01 39.639261 -100.940512 248 38287ft 471kts
11-Jan-21 12:02 39.587514 -101.096871 248 38277ft 471kts
11-Jan-21 12:03 39.535612 -101.252844 248 38272ft 471kts
11-Jan-21 12:04 39.483894 -101.408574 248 38265ft 471kts
11-Jan-21 12:05 39.431414 -101.563871 248 38256ft 471kts
11-Jan-21 12:06 39.379172 -101.719580 251 38250ft 470kts
11-Jan-21 12:07 39.333506 -101.877827 251 38251ft 470kts
11-Jan-21 12:08 39.287166 -102.035584 251 38255ft 471kts
11-Jan-21 12:09 39.240969 -102.194048 251 38260ft 471kts
11-Jan-21 12:10 39.194563 -102.352099 251 38260ft 472kts
11-Jan-21 12:11 39.147499 -102.510576 250 38262ft 473kts
11-Jan-21 12:12 39.100095 -102.669137 250 38264ft 474kts
11-Jan-21 12:13 39.052468 -102.827494 250 38268ft 474kts
11-Jan-21 12:14 39.004707 -102.985358 250 38271ft 475kts
11-Jan-21 12:15 38.956507 -103.143761 250 38272ft 476kts
11-Jan-21 12:16 38.908085 -103.301970 250 38272ft 477kts
11-Jan-21 12:17 38.859216 -103.460725 250 38272ft 477kts
11-Jan-21 12:18 38.810180 -103.619096 249 38277ft 478kts
11-Jan-21 12:19 38.760628 -103.778226 249 38280ft 479kts
11-Jan-21 12:20 38.710949 -103.936866 249 38287ft 481kts
11-Jan-21 12:21 38.660763 -104.096197 249 38289ft 482kts
11-Jan-21 12:22 38.610408 -104.255172 249 38289ft 482kts
11-Jan-21 12:23 38.559765 -104.414098 249 38282ft 483kts
11-Jan-21 12:24 38.508894 -104.572950 249 38273ft 483kts
11-Jan-21 12:25 38.457955 -104.731523 249 38267ft 483kts
11-Jan-21 12:26 38.406766 -104.889968 249 38263ft 483kts
11-Jan-21 12:27 38.355760 -105.048360 254 38258ft 482kts
11-Jan-21 12:28 38.332197 -105.215285 261 38263ft 481kts
11-Jan-21 12:29 38.304471 -105.382640 261 38278ft 482kts
11-Jan-21 12:30 38.276462 -105.549771 261 38302ft 485kts
11-Jan-21 12:31 38.248893 -105.717888 261 38326ft 486kts
11-Jan-21 12:32 38.220628 -105.886443 261 38343ft 488kts
11-Jan-21 12:33 38.191995 -106.054938 261 38343ft 487kts
11-Jan-21 12:34 38.163091 -106.223457 260 38344ft 487kts
11-Jan-21 12:35 38.134057 -106.391281 260 38355ft 485kts
11-Jan-21 12:36 38.105018 -106.557999 261 38372ft 482kts
11-Jan-21 12:37 38.076080 -106.724105 260 38369ft 480kts
11-Jan-21 12:38 38.046702 -106.888962 261 38380ft 478kts
11-Jan-21 12:39 38.017199 -107.053720 261 38398ft 477kts
11-Jan-21 12:40 37.987409 -107.217181 261 38389ft 478kts
11-Jan-21 12:41 37.957258 -107.381355 262 38376ft 477kts
11-Jan-21 12:42 37.927834 -107.545496 262 38348ft 477kts
11-Jan-21 12:43 37.897760 -107.708792 262 38334ft 477kts
11-Jan-21 12:44 37.867335 -107.872231 262 38330ft 476kts
11-Jan-21 12:45 37.836719 -108.035289 262 38334ft 476kts
11-Jan-21 12:46 37.805828 -108.198503 261 38338ft 476kts
11-Jan-21 12:47 37.774813 -108.361050 261 38347ft 475kts
11-Jan-21 12:48 37.743828 -108.523102 262 38355ft 474kts
11-Jan-21 12:49 37.712529 -108.685010 261 38367ft 473kts
11-Jan-21 12:50 37.680820 -108.846152 261 38385ft 471kts
11-Jan-21 12:51 37.649140 -109.006111 261 38398ft 469kts
11-Jan-21 12:53 37.617183 -109.165316 261 38412ft 467kts
11-Jan-21 12:54 37.585020 -109.324492 261 38425ft 466kts
11-Jan-21 12:55 37.553844 -109.482420 261 38429ft 464kts
11-Jan-21 12:56 37.521944 -109.640088 261 38428ft 463kts
11-Jan-21 12:57 37.489868 -109.797020 261 38428ft 462kts
11-Jan-21 12:58 37.457559 -109.953871 260 38428ft 462kts
11-Jan-21 12:59 37.425081 -110.110396 260 38430ft 460kts
11-Jan-21 13:00 37.392450 -110.266523 260 38432ft 461kts
11-Jan-21 13:01 37.359570 -110.422720 260 38435ft 462kts
11-Jan-21 13:02 37.326499 -110.578727 260 38437ft 463kts
11-Jan-21 13:03 37.293147 -110.734942 260 38436ft 462kts
11-Jan-21 13:04 37.259628 -110.890845 260 38432ft 462kts
11-Jan-21 13:05 37.225918 -111.046552 260 38432ft 463kts
11-Jan-21 13:06 37.191870 -111.202745 260 38432ft 462kts
11-Jan-21 13:07 37.157842 -111.357775 260 38435ft 462kts
11-Jan-21 13:08 37.123791 -111.513356 260 38430ft 462kts
11-Jan-21 13:08 37.094957 -111.642676 260 38425ft 462kts
11-Jan-21 13:10 37.054372 -111.823003 260 38421ft 461kts
11-Jan-21 13:11 37.031856 -111.979602 267 38417ft 456kts
11-Jan-21 13:11 37.015358 -112.110472 267 38416ft 454kts
11-Jan-21 13:12 36.994829 -112.266418 267 38414ft 455kts
11-Jan-21 13:13 36.973820 -112.422554 267 38419ft 455kts
11-Jan-21 13:15 36.949070 -112.605369 267 38418ft 456kts
11-Jan-21 13:15 36.931187 -112.735678 267 38410ft 456kts
11-Jan-21 13:16 36.909661 -112.891805 267 38395ft 455kts
11-Jan-21 13:17 36.888575 -113.048151 267 38390ft 456kts
11-Jan-21 13:18 36.867080 -113.204852 267 36118ft 459kts
11-Jan-21 13:19 36.844850 -113.361945 265 32845ft 462kts
11-Jan-21 13:20 36.821050 -113.517795 259 30120ft 451kts
11-Jan-21 13:21 36.768140 -113.658391 244 27553ft 442kts
11-Jan-21 13:22 36.709212 -113.789345 244 25027ft 427kts
11-Jan-21 13:23 36.651590 -113.917105 243 22525ft 415kts
11-Jan-21 13:24 36.595626 -114.040449 243 20080ft 404kts
11-Jan-21 13:25 36.538598 -114.158699 239 17690ft 392kts
11-Jan-21 13:26 36.481276 -114.269705 239 15638ft 373kts
11-Jan-21 13:27 36.426361 -114.376376 239 13482ft 359kts
11-Jan-21 13:28 36.375159 -114.475832 239 12361ft 317kts
11-Jan-21 13:29 36.329013 -114.565458 239 10807ft 303kts
11-Jan-21 13:30 36.275459 -114.640484 206 9832ft 287kts
11-Jan-21 13:31 36.201287 -114.672372 198 9139ft 279kts
11-Jan-21 13:32 36.135053 -114.715816 237 8231ft 270kts
11-Jan-21 13:33 36.098350 -114.796135 241 6689ft 265kts
11-Jan-21 13:34 36.069442 -114.877226 273 5176ft 257kts
11-Jan-21 13:35 36.073713 -114.957219 271 4797ft 210kts
11-Jan-21 13:36 36.073755 -115.024947 270 3775ft 177kts
11-Jan-21 13:37 36.073474 -115.077828 271 2931ft 144kts
11-Jan-21 13:38 36.073670 -115.127456 270 2197ft 137kts
11-Jan-21 13:39 36.074586 -115.150239 300 2189ft 17kts
11-Jan-21 13:40 36.075378 -115.151415 339 2189ft 18kts
11-Jan-21 13:41 36.080219 -115.154180 335 2189ft 22kts
11-Jan-21 13:42 36.082310 -115.153194 25 2189ft 0kts
11-Jan-21 13:43 36.082310 -115.153194 25 2189ft 0kts
11-Jan-21 13:44 36.082310 -115.153194 25 2189ft 0kts
11-Jan-21 13:45 36.082310 -115.153194 25 2189ft 0kts
11-Jan-21 13:46 36.082310 -115.153194 25 2189ft 0kts
11-Jan-21 13:47 36.082310 -115.153194 25 2189ft 0kts
11-Jan-21 13:48 36.082310 -115.153194 25 2189ft 0kts
11-Jan-21 13:49 36.082310 -115.153194 25 2189ft 0kts
11-Jan-21 13:50 36.082310 -115.153194 25 2189ft 0kts
11-Jan-21 13:51 36.082310 -115.153194 25 2189ft 0kts
11-Jan-21 13:52 36.082310 -115.153194 25 2189ft 0kts
11-Jan-21 13:53 36.082310 -115.153194 25 2189ft 0kts

Navigation Log

Ident Type
Flight plan parsing failed, navigation log unavailable